Time;durP1;ratioP1;P1;durP2;ratioP2;P2;SDS_P1;SDS_P2;PMS_P1;PMS_P2;Temp;Humidity;BMP_temperature;BMP_pressure;BME280_temperature;BME280_humidity;BME280_pressure;Samples;Min_cycle;Max_cycle;Signal;HPM_P1;HPM_P2
2021/03/26 00:01:10;;;;;;;16.25;12.02;;;8.50;96.90;;;;;;5034169;28;20292;-42
2021/03/26 00:03:40;;;;;;;15.82;11.77;;;8.40;97.00;;;;;;5034266;28;20638;-42
2021/03/26 00:06:12;;;;;;;15.40;10.98;;;8.40;97.20;;;;;;5034653;28;20201;-42
2021/03/26 00:08:40;;;;;;;14.15;11.88;;;8.30;97.30;;;;;;5034305;28;20574;-43
2021/03/26 00:11:08;;;;;;;14.25;9.13;;;8.40;97.40;;;;;;5034703;28;20215;-43
2021/03/26 00:13:36;;;;;;;14.85;10.18;;;8.30;97.40;;;;;;5034208;28;20205;-43
2021/03/26 00:16:04;;;;;;;18.88;12.23;;;8.30;97.70;;;;;;5033979;28;20217;-44
2021/03/26 00:18:31;;;;;;;21.58;14.27;;;8.30;97.60;;;;;;5033944;28;20319;-42
2021/03/26 00:20:59;;;;;;;14.65;11.75;;;8.30;97.70;;;;;;5033898;28;20660;-43
2021/03/26 00:23:27;;;;;;;14.07;9.18;;;8.30;97.90;;;;;;5033941;28;20212;-43
2021/03/26 00:25:55;;;;;;;11.80;8.85;;;8.20;98.00;;;;;;5034388;28;20236;-42
2021/03/26 00:28:23;;;;;;;11.80;8.63;;;8.20;98.20;;;;;;5033620;28;20295;-42
2021/03/26 00:30:51;;;;;;;12.57;9.95;;;8.10;98.30;;;;;;5033936;28;20248;-42
2021/03/26 00:33:18;;;;;;;12.95;10.45;;;8.10;98.60;;;;;;5032453;28;20251;-42
2021/03/26 00:35:47;;;;;;;18.13;9.75;;;8.00;98.60;;;;;;5033916;28;20212;-43
2021/03/26 00:38:14;;;;;;;14.93;10.52;;;8.00;98.80;;;;;;5033440;28;20725;-49
2021/03/26 00:40:41;;;;;;;19.67;11.75;;;8.00;98.90;;;;;;5033575;28;20683;-44
2021/03/26 00:43:09;;;;;;;26.75;16.98;;;8.00;99.10;;;;;;5033504;28;20214;-42
2021/03/26 00:45:39;;;;;;;22.25;13.90;;;8.00;99.20;;;;;;5033296;28;20574;-43
2021/03/26 00:48:07;;;;;;;19.00;13.10;;;8.00;99.30;;;;;;5033650;28;20211;-43
2021/03/26 00:50:37;;;;;;;20.15;12.10;;;8.00;99.30;;;;;;5033357;28;20300;-44
2021/03/26 00:53:09;;;;;;;21.58;13.60;;;8.00;99.30;;;;;;5033641;28;20270;-43
2021/03/26 00:55:37;;;;;;;15.85;10.65;;;8.10;99.30;;;;;;5033411;28;20243;-43
2021/03/26 00:58:06;;;;;;;21.13;13.35;;;8.00;99.40;;;;;;5033252;28;20228;-45
2021/03/26 01:00:34;;;;;;;15.23;10.75;;;8.00;99.50;;;;;;5033309;28;20244;-43
2021/03/26 01:03:03;;;;;;;13.98;10.48;;;8.00;99.60;;;;;;5033260;28;20244;-45
2021/03/26 01:05:32;;;;;;;13.80;10.48;;;8.00;99.70;;;;;;5033447;28;20635;-49
2021/03/26 01:08:00;;;;;;;15.77;12.13;;;8.00;99.80;;;;;;5033413;28;20259;-43
2021/03/26 01:10:30;;;;;;;12.75;9.68;;;8.00;99.90;;;;;;5033691;28;20387;-50
2021/03/26 01:12:58;;;;;;;19.23;12.38;;;7.90;99.90;;;;;;5033775;28;20209;-43
2021/03/26 01:15:27;;;;;;;23.45;16.73;;;7.90;99.90;;;;;;5033194;28;20767;-45
2021/03/26 01:17:56;;;;;;;17.15;12.57;;;7.90;99.90;;;;;;5033100;28;20668;-42
2021/03/26 01:20:28;;;;;;;15.73;11.82;;;7.90;99.90;;;;;;5032881;28;20251;-45
2021/03/26 01:22:55;;;;;;;17.48;10.52;;;7.90;99.90;;;;;;5032927;28;20403;-44
2021/03/26 01:25:26;;;;;;;15.75;11.25;;;7.90;99.90;;;;;;5033166;28;20232;-43
2021/03/26 01:27:53;;;;;;;12.95;10.70;;;7.90;99.90;;;;;;5033210;28;20282;-49
2021/03/26 01:30:23;;;;;;;16.08;11.40;;;7.90;99.90;;;;;;5032909;28;20683;-44
2021/03/26 01:32:51;;;;;;;15.38;10.88;;;7.90;99.90;;;;;;5032830;28;20283;-50
2021/03/26 01:35:20;;;;;;;14.60;11.80;;;7.80;99.90;;;;;;5032833;28;20213;-45
2021/03/26 01:37:49;;;;;;;18.05;14.18;;;7.80;99.90;;;;;;5032937;28;20205;-46
2021/03/26 01:40:19;;;;;;;16.30;12.50;;;7.80;99.90;;;;;;5032742;28;20232;-44
2021/03/26 01:42:47;;;;;;;14.32;11.50;;;7.70;99.90;;;;;;5032871;28;20307;-49
2021/03/26 01:45:18;;;;;;;15.05;11.38;;;7.70;99.90;;;;;;5032472;28;20247;-45
2021/03/26 01:47:45;;;;;;;12.48;10.52;;;7.70;99.90;;;;;;5032481;28;20580;-43
2021/03/26 01:50:15;;;;;;;15.68;12.60;;;7.70;99.90;;;;;;5032489;28;20205;-44
2021/03/26 01:52:42;;;;;;;17.15;13.00;;;7.70;99.90;;;;;;5032332;28;20248;-45
2021/03/26 01:55:18;;;;;;;15.05;11.27;;;7.60;99.90;;;;;;5032516;28;20208;-44
2021/03/26 01:57:45;;;;;;;15.10;10.50;;;7.60;99.90;;;;;;5032382;28;20291;-42
2021/03/26 02:00:30;;;;;;;14.38;11.57;;;7.50;99.90;;;;;;5032548;28;20215;-42
2021/03/26 02:03:04;;;;;;;14.68;10.02;;;7.50;99.90;;;;;;5032162;28;20638;-42
2021/03/26 02:05:32;;;;;;;13.23;10.52;;;7.40;99.90;;;;;;5032452;28;20241;-43
2021/03/26 02:07:59;;;;;;;14.73;10.93;;;7.40;99.90;;;;;;5032149;28;20295;-44
2021/03/26 02:10:27;;;;;;;17.83;11.57;;;7.30;99.90;;;;;;5032191;28;20209;-42
2021/03/26 02:13:00;;;;;;;15.60;11.13;;;7.30;99.90;;;;;;5032092;28;20309;-42
2021/03/26 02:15:33;;;;;;;19.35;12.35;;;7.30;99.90;;;;;;5032139;28;20228;-41
2021/03/26 02:18:01;;;;;;;17.73;11.55;;;7.20;99.90;;;;;;5032116;28;20679;-41
2021/03/26 02:20:41;;;;;;;15.50;11.07;;;7.20;99.90;;;;;;5032080;28;20734;-41
2021/03/26 02:23:09;;;;;;;18.77;12.15;;;7.20;99.90;;;;;;5031734;28;20299;-42
2021/03/26 02:25:38;;;;;;;15.20;11.45;;;7.20;99.90;;;;;;5031957;28;20291;-41
2021/03/26 02:28:06;;;;;;;15.88;10.55;;;7.20;99.90;;;;;;5032198;28;20685;-41
2021/03/26 02:30:49;;;;;;;14.85;10.70;;;7.20;99.90;;;;;;5031863;28;20238;-41
2021/03/26 02:33:16;;;;;;;12.20;10.82;;;7.30;99.90;;;;;;5031910;28;20236;-41
2021/03/26 02:35:48;;;;;;;14.75;11.10;;;7.30;99.90;;;;;;5031766;28;20216;-40
2021/03/26 02:38:20;;;;;;;15.45;11.52;;;7.30;99.90;;;;;;5031739;28;20212;-40
2021/03/26 02:40:51;;;;;;;18.55;10.77;;;7.30;99.90;;;;;;5032006;28;20286;-41
2021/03/26 02:43:25;;;;;;;13.60;10.13;;;7.40;99.90;;;;;;5032007;28;20204;-43
2021/03/26 02:45:59;;;;;;;12.27;10.63;;;7.40;99.90;;;;;;5031701;28;20613;-41
2021/03/26 02:48:36;;;;;;;12.05;9.98;;;7.40;99.90;;;;;;5032139;28;20291;-41
2021/03/26 02:51:11;;;;;;;13.88;10.65;;;7.40;99.90;;;;;;5031933;28;20240;-42
2021/03/26 02:57:29;;;;;;;14.45;10.50;;;7.50;99.90;;;;;;5034591;28;20259;-42
2021/03/26 03:00:01;;;;;;;13.20;10.38;;;7.50;99.90;;;;;;5035666;28;20236;-42
2021/03/26 03:02:30;;;;;;;12.07;10.13;;;7.50;99.90;;;;;;5035781;28;20224;-42
2021/03/26 03:05:06;;;;;;;17.42;15.02;;;7.40;99.90;;;;;;5035836;28;20233;-42
2021/03/26 03:07:37;;;;;;;16.45;11.90;;;7.40;99.90;;;;;;5035558;28;20575;-41
2021/03/26 03:10:18;;;;;;;14.77;10.90;;;7.40;99.90;;;;;;5035752;28;20235;-41
2021/03/26 03:12:48;;;;;;;15.40;10.88;;;7.30;99.90;;;;;;5035624;28;20242;-42
2021/03/26 03:15:19;;;;;;;19.83;14.18;;;7.30;99.90;;;;;;5035353;28;20287;-42
2021/03/26 03:17:51;;;;;;;17.98;13.77;;;7.20;99.90;;;;;;5035641;28;20313;-43
2021/03/26 03:20:26;;;;;;;18.45;12.55;;;7.20;99.90;;;;;;5035328;28;20228;-42
2021/03/26 03:22:59;;;;;;;26.30;20.20;;;7.10;99.90;;;;;;5035350;28;20208;-41
2021/03/26 03:25:27;;;;;;;34.08;24.65;;;7.00;99.90;;;;;;5035349;28;20209;-41
2021/03/26 03:28:08;;;;;;;15.02;11.27;;;7.00;99.90;;;;;;5035125;28;20508;-42
2021/03/26 03:30:45;;;;;;;15.55;11.63;;;7.00;99.90;;;;;;5035270;28;20223;-41
2021/03/26 03:33:18;;;;;;;13.88;11.52;;;7.00;99.90;;;;;;5035057;28;20259;-41
2021/03/26 03:35:53;;;;;;;14.27;10.27;;;6.90;99.90;;;;;;5035026;28;20208;-40
2021/03/26 03:38:36;;;;;;;16.00;11.13;;;6.90;99.90;;;;;;5034867;28;20205;-41
2021/03/26 03:41:07;;;;;;;16.30;10.75;;;6.90;99.90;;;;;;5035110;28;20290;-42
2021/03/26 03:43:40;;;;;;;20.23;10.50;;;7.00;99.90;;;;;;5035315;28;20209;-40
2021/03/26 03:46:13;;;;;;;16.38;10.18;;;7.00;99.90;;;;;;5034421;28;20244;-40
2021/03/26 03:48:45;;;;;;;18.17;11.63;;;7.00;99.90;;;;;;5034713;28;20645;-40
2021/03/26 03:51:19;;;;;;;16.52;11.73;;;7.00;99.90;;;;;;5035003;28;20204;-41
2021/03/26 03:53:54;;;;;;;19.15;11.35;;;7.00;99.90;;;;;;5034979;28;20232;-40
2021/03/26 03:56:30;;;;;;;15.60;12.20;;;7.00;99.90;;;;;;5034732;28;20632;-40
2021/03/26 03:59:02;;;;;;;17.48;11.90;;;7.00;99.90;;;;;;5034435;28;20310;-40
2021/03/26 04:01:36;;;;;;;21.85;14.80;;;7.00;99.90;;;;;;5034907;28;20236;-41
2021/03/26 04:04:08;;;;;;;16.30;11.90;;;7.00;99.90;;;;;;5034681;28;20248;-45
2021/03/26 04:06:46;;;;;;;19.30;12.60;;;7.10;99.90;;;;;;5034657;28;20547;-44
2021/03/26 04:09:17;;;;;;;29.80;16.98;;;7.10;99.90;;;;;;5034461;28;20204;-46
2021/03/26 04:11:48;;;;;;;17.33;12.20;;;7.10;99.90;;;;;;5034363;28;20258;-44
2021/03/26 04:14:27;;;;;;;15.23;11.65;;;7.10;99.90;;;;;;5034687;28;20263;-43
2021/03/26 04:16:58;;;;;;;18.92;12.82;;;7.10;99.90;;;;;;5034779;28;20255;-42
2021/03/26 04:19:31;;;;;;;13.55;9.95;;;7.10;99.90;;;;;;5034355;28;20260;-43
2021/03/26 04:22:02;;;;;;;11.40;10.18;;;7.10;99.90;;;;;;5034283;28;20387;-46
2021/03/26 04:24:33;;;;;;;13.60;10.05;;;7.10;99.90;;;;;;5034507;28;20209;-42
2021/03/26 04:27:07;;;;;;;18.38;13.68;;;7.20;99.90;;;;;;5034172;28;20231;-46
2021/03/26 04:29:43;;;;;;;37.30;25.83;;;7.20;99.90;;;;;;5033930;28;20254;-43
2021/03/26 04:32:22;;;;;;;38.03;24.58;;;7.20;99.90;;;;;;5033949;28;20710;-43
2021/03/26 04:34:51;;;;;;;28.35;19.30;;;7.20;99.90;;;;;;5034151;28;20209;-42
2021/03/26 04:37:25;;;;;;;42.40;24.30;;;7.20;99.90;;;;;;5034259;28;20204;-42
2021/03/26 04:39:56;;;;;;;15.75;11.07;;;7.20;99.90;;;;;;5033959;28;20323;-44
2021/03/26 04:42:29;;;;;;;16.70;12.05;;;7.20;99.90;;;;;;5033509;28;20240;-46
2021/03/26 04:45:07;;;;;;;13.57;10.20;;;7.20;99.90;;;;;;5033523;28;20213;-42
2021/03/26 04:47:42;;;;;;;13.65;11.07;;;7.20;99.90;;;;;;5033642;28;20251;-44
2021/03/26 04:50:15;;;;;;;14.30;10.23;;;7.30;99.90;;;;;;5033661;28;20214;-42
2021/03/26 04:52:45;;;;;;;15.50;10.25;;;7.30;99.90;;;;;;5033423;28;20213;-48
2021/03/26 04:55:19;;;;;;;15.75;10.82;;;7.20;99.90;;;;;;5033396;28;20267;-42
2021/03/26 04:57:48;;;;;;;18.13;13.52;;;7.20;99.90;;;;;;5033459;28;20376;-42
2021/03/26 05:00:21;;;;;;;17.13;12.13;;;7.10;99.90;;;;;;5033446;28;20237;-42
2021/03/26 05:02:56;;;;;;;23.85;19.20;;;7.10;99.90;;;;;;5015714;28;20226;-42
2021/03/26 05:05:25;;;;;;;16.73;13.05;;;7.00;99.90;;;;;;5033036;28;20244;-45
2021/03/26 05:07:57;;;;;;;15.30;10.95;;;7.00;99.90;;;;;;5032997;28;20248;-41
2021/03/26 05:10:27;;;;;;;17.38;14.85;;;6.90;99.90;;;;;;5033342;28;20209;-41
2021/03/26 05:13:00;;;;;;;16.83;11.27;;;6.90;99.90;;;;;;5033374;28;20209;-41
2021/03/26 05:15:31;;;;;;;16.02;9.95;;;6.80;99.90;;;;;;5033202;28;20726;-39
2021/03/26 05:18:05;;;;;;;15.57;10.10;;;6.80;99.90;;;;;;5033205;28;20296;-40
2021/03/26 05:20:37;;;;;;;16.38;11.48;;;6.80;99.90;;;;;;5032430;28;20710;-39
2021/03/26 05:23:09;;;;;;;13.85;10.40;;;6.70;99.90;;;;;;5033173;28;20304;-39
2021/03/26 05:25:39;;;;;;;12.55;9.77;;;6.80;99.90;;;;;;5033157;28;20579;-39
2021/03/26 05:28:08;;;;;;;13.77;10.15;;;6.80;99.90;;;;;;5032861;28;20617;-39
2021/03/26 05:30:39;;;;;;;15.88;10.68;;;6.70;99.90;;;;;;5015158;28;20337;-39
2021/03/26 05:33:20;;;;;;;20.17;11.73;;;6.70;99.90;;;;;;5032972;28;20240;-39
2021/03/26 05:35:54;;;;;;;13.95;11.32;;;6.70;99.90;;;;;;5032874;28;20204;-39
2021/03/26 05:38:26;;;;;;;17.00;11.25;;;6.70;99.90;;;;;;5032812;28;20296;-40
2021/03/26 05:41:17;;;;;;;16.77;10.00;;;6.70;99.90;;;;;;5032817;28;20604;-40
2021/03/26 05:44:01;;;;;;;13.05;9.48;;;6.80;99.90;;;;;;5032725;28;20213;-40
2021/03/26 05:46:44;;;;;;;16.30;11.73;;;6.80;99.90;;;;;;5032589;28;20266;-40
2021/03/26 05:49:18;;;;;;;16.73;10.27;;;6.90;99.90;;;;;;5032729;28;20216;-43
2021/03/26 05:52:06;;;;;;;15.07;9.85;;;7.00;99.90;;;;;;5033031;28;20204;-44
2021/03/26 05:54:51;;;;;;;12.68;9.63;;;7.10;99.90;;;;;;5033120;28;20209;-42
2021/03/26 05:57:25;;;;;;;12.32;9.52;;;7.20;99.90;;;;;;5032817;28;20236;-43
2021/03/26 06:00:14;;;;;;;13.25;9.60;;;7.30;99.90;;;;;;5032454;28;20315;-44
2021/03/26 06:03:05;;;;;;;16.90;9.75;;;7.40;99.90;;;;;;5032685;28;20241;-41
2021/03/26 06:05:54;;;;;;;12.32;8.77;;;7.40;99.90;;;;;;5032417;28;20208;-43
2021/03/26 06:08:43;;;;;;;10.95;9.15;;;7.40;99.90;;;;;;5032571;28;20243;-41
2021/03/26 06:12:01;;;;;;;12.25;8.98;;;7.40;99.90;;;;;;5032340;28;20215;-41
2021/03/26 06:14:49;;;;;;;12.50;9.48;;;7.30;99.90;;;;;;5032103;28;20328;-42
2021/03/26 06:17:46;;;;;;;11.77;9.02;;;7.40;99.90;;;;;;5031912;28;20614;-42
2021/03/26 06:20:37;;;;;;;14.27;9.82;;;7.50;99.90;;;;;;5031649;28;20691;-42
2021/03/26 06:23:45;;;;;;;14.35;9.70;;;7.50;99.90;;;;;;5031540;28;20312;-42
2021/03/26 06:26:34;;;;;;;14.90;9.45;;;7.60;99.90;;;;;;5011927;28;20294;-42
2021/03/26 06:29:10;;;;;;;14.32;10.80;;;7.80;99.90;;;;;;5031546;28;20626;-41
2021/03/26 06:32:15;;;;;;;13.60;10.10;;;7.90;99.60;;;;;;5030750;28;20227;-41
2021/03/26 06:35:13;;;;;;;14.50;9.25;;;8.10;99.30;;;;;;5031488;28;20219;-40
2021/03/26 06:38:14;;;;;;;14.68;9.70;;;8.30;99.00;;;;;;5031472;28;20205;-40
2021/03/26 06:40:52;;;;;;;20.80;9.48;;;8.40;98.70;;;;;;5031543;28;20324;-40
2021/03/26 06:44:08;;;;;;;17.17;9.30;;;8.50;98.60;;;;;;5031433;28;20236;-45
2021/03/26 06:46:45;;;;;;;14.32;9.40;;;8.60;98.30;;;;;;4970695;28;20748;-40
2021/03/26 06:49:25;;;;;;;12.80;9.32;;;8.70;98.20;;;;;;5029828;28;20204;-40
2021/03/26 06:52:12;;;;;;;14.32;10.35;;;8.90;97.90;;;;;;5031315;28;20247;-40
2021/03/26 06:55:09;;;;;;;15.07;10.02;;;8.90;97.60;;;;;;5031589;28;20215;-40
2021/03/26 06:57:53;;;;;;;14.75;11.20;;;9.00;97.40;;;;;;5031259;28;20300;-41
2021/03/26 07:00:44;;;;;;;13.18;10.60;;;9.10;97.30;;;;;;5031119;28;20362;-41
2021/03/26 07:03:42;;;;;;;19.00;10.50;;;9.20;97.10;;;;;;5029276;28;20296;-41
2021/03/26 07:06:35;;;;;;;13.40;9.90;;;9.30;96.90;;;;;;5031288;28;20271;-41
2021/03/26 07:09:18;;;;;;;14.18;10.13;;;9.40;96.60;;;;;;5031569;28;20288;-41
2021/03/26 07:12:06;;;;;;;15.05;9.43;;;9.50;96.60;;;;;;5031232;28;20639;-46
2021/03/26 07:14:51;;;;;;;13.00;9.60;;;9.60;96.20;;;;;;5031291;28;20270;-44
2021/03/26 07:17:59;;;;;;;15.52;8.52;;;9.70;96.00;;;;;;5031325;28;20303;-47
2021/03/26 07:21:03;;;;;;;13.80;9.25;;;9.80;95.70;;;;;;5031101;28;20246;-42
2021/03/26 07:24:12;;;;;;;16.67;9.60;;;9.80;95.70;;;;;;5031126;28;20220;-41
2021/03/26 07:27:02;;;;;;;12.88;8.73;;;9.90;95.50;;;;;;5031057;28;20247;-40
2021/03/26 07:29:44;;;;;;;11.95;8.60;;;10.10;95.20;;;;;;5030879;28;20694;-44
2021/03/26 07:32:43;;;;;;;14.25;8.63;;;10.30;95.00;;;;;;5031066;28;20294;-46
2021/03/26 07:35:37;;;;;;;14.50;9.93;;;10.30;94.70;;;;;;5030732;28;20208;-41
2021/03/26 07:38:27;;;;;;;12.23;8.55;;;10.40;94.50;;;;;;5031295;28;20341;-43
2021/03/26 07:41:12;;;;;;;16.88;8.18;;;10.50;94.10;;;;;;5030910;28;20315;-41
2021/03/26 07:43:58;;;;;;;12.90;8.57;;;10.50;94.20;;;;;;5033939;28;20204;-42
2021/03/26 07:46:52;;;;;;;12.40;8.15;;;10.50;94.10;;;;;;5034807;28;20208;-41
2021/03/26 07:49:50;;;;;;;22.95;8.90;;;10.50;93.90;;;;;;5034760;28;20578;-42
2021/03/26 07:52:24;;;;;;;10.88;7.97;;;10.60;94.00;;;;;;5034254;28;20236;-40
2021/03/26 07:55:14;;;;;;;11.00;7.25;;;10.70;93.70;;;;;;5034348;28;20204;-40
2021/03/26 07:58:06;;;;;;;12.68;7.78;;;10.80;93.50;;;;;;5034544;28;20281;-40
2021/03/26 08:00:41;;;;;;;14.25;7.55;;;10.90;93.40;;;;;;5034218;28;20316;-40
2021/03/26 08:03:48;;;;;;;13.00;8.38;;;11.10;93.20;;;;;;5034578;28;20239;-41
2021/03/26 08:06:37;;;;;;;24.63;8.68;;;11.30;92.80;;;;;;4989243;28;20213;-41
2021/03/26 08:09:19;;;;;;;13.95;8.07;;;11.40;92.40;;;;;;5034221;28;20295;-41
2021/03/26 08:11:57;;;;;;;11.13;6.95;;;11.50;92.30;;;;;;5034000;28;20765;-42
2021/03/26 08:14:50;;;;;;;10.38;6.97;;;11.50;92.10;;;;;;5034132;28;20303;-42
2021/03/26 08:17:37;;;;;;;13.18;7.05;;;11.50;92.10;;;;;;5033857;28;20263;-42
2021/03/26 08:20:40;;;;;;;12.75;7.60;;;11.60;91.90;;;;;;5033768;28;20236;-42
2021/03/26 08:23:18;;;;;;;14.57;8.15;;;11.80;91.60;;;;;;4953667;29;20623;-41
2021/03/26 08:25:52;;;;;;;9.63;7.70;;;11.90;91.50;;;;;;5025117;28;20623;-42
2021/03/26 08:28:35;;;;;;;15.35;9.20;;;12.00;91.40;;;;;;5033997;28;20213;-46
2021/03/26 08:31:32;;;;;;;11.77;8.32;;;12.20;91.20;;;;;;5033935;28;20208;-47
2021/03/26 08:34:44;;;;;;;11.43;8.93;;;12.30;90.90;;;;;;5033619;28;20267;-49
2021/03/26 08:37:22;;;;;;;13.63;9.68;;;12.50;90.60;;;;;;4967632;28;20304;-49
2021/03/26 08:39:51;;;;;;;10.93;9.07;;;12.80;90.40;;;;;;5033509;28;20311;-45
2021/03/26 08:42:23;;;;;;;12.20;9.73;;;12.90;90.20;;;;;;5033630;28;20300;-48
2021/03/26 08:44:54;;;;;;;11.60;9.82;;;13.00;90.00;;;;;;5033526;28;20208;-45
2021/03/26 08:47:28;;;;;;;14.15;10.82;;;13.10;89.70;;;;;;5033513;28;20612;-45
2021/03/26 08:50:07;;;;;;;13.20;10.20;;;13.30;89.10;;;;;;5033634;28;20209;-45
2021/03/26 08:53:12;;;;;;;16.35;10.98;;;13.40;88.50;;;;;;5033302;28;20244;-45
2021/03/26 08:56:00;;;;;;;12.68;9.57;;;13.60;87.90;;;;;;5032600;28;20208;-43
2021/03/26 08:59:04;;;;;;;15.05;10.27;;;13.70;87.70;;;;;;5033144;28;20247;-44
2021/03/26 09:02:08;;;;;;;14.80;10.88;;;13.80;87.40;;;;;;4992458;28;20214;-42
2021/03/26 09:05:12;;;;;;;14.00;10.68;;;14.00;87.50;;;;;;5033619;28;20216;-43
2021/03/26 09:07:50;;;;;;;17.08;11.60;;;14.10;87.00;;;;;;5033010;28;20344;-43
2021/03/26 09:10:36;;;;;;;15.93;12.48;;;14.20;86.90;;;;;;5033069;28;20667;-48
2021/03/26 09:13:14;;;;;;;12.52;11.07;;;14.20;86.60;;;;;;5032970;28;20274;-48
2021/03/26 09:16:04;;;;;;;17.00;12.70;;;14.20;86.20;;;;;;5032923;28;20209;-47
2021/03/26 09:18:48;;;;;;;15.27;12.45;;;14.30;86.30;;;;;;5027981;28;20295;-47
2021/03/26 09:21:33;;;;;;;18.13;12.50;;;14.40;85.50;;;;;;5032748;28;20319;-44
2021/03/26 09:24:21;;;;;;;14.63;11.68;;;14.50;85.40;;;;;;5032543;28;20212;-43
2021/03/26 09:27:01;;;;;;;15.52;11.90;;;14.50;85.30;;;;;;5032804;28;20208;-41
2021/03/26 09:29:35;;;;;;;15.73;12.02;;;14.50;85.30;;;;;;5032753;28;20299;-41
2021/03/26 09:32:12;;;;;;;13.95;12.38;;;14.60;85.90;;;;;;5032422;28;20251;-41
2021/03/26 09:34:44;;;;;;;15.70;12.05;;;14.80;84.70;;;;;;5032556;28;20209;-42
2021/03/26 09:37:26;;;;;;;16.35;12.18;;;14.80;84.60;;;;;;5032261;28;20682;-45
2021/03/26 09:39:58;;;;;;;19.38;13.60;;;14.90;84.50;;;;;;5032075;28;20243;-43
2021/03/26 09:42:33;;;;;;;15.80;12.32;;;14.90;84.30;;;;;;5032266;28;20698;-45
2021/03/26 09:45:08;;;;;;;15.07;13.00;;;14.90;84.40;;;;;;5032327;28;20250;-43
2021/03/26 09:47:40;;;;;;;18.65;12.00;;;14.80;84.50;;;;;;5032299;28;20208;-44
2021/03/26 09:50:31;;;;;;;19.67;13.15;;;14.90;84.60;;;;;;5032052;28;20705;-43
2021/03/26 09:52:59;;;;;;;16.98;13.32;;;14.90;84.70;;;;;;5032239;28;20213;-48
2021/03/26 09:55:32;;;;;;;14.52;12.80;;;15.00;84.70;;;;;;5032211;28;20262;-47
2021/03/26 09:58:12;;;;;;;15.45;12.48;;;15.10;84.20;;;;;;5032396;28;20339;-46
2021/03/26 10:00:45;;;;;;;18.83;13.13;;;15.20;83.90;;;;;;5032041;28;20648;-45
2021/03/26 10:03:33;;;;;;;14.93;13.27;;;15.30;83.60;;;;;;5032509;28;20242;-47
2021/03/26 10:06:05;;;;;;;16.42;12.00;;;15.30;82.90;;;;;;5031874;28;20219;-45
2021/03/26 10:08:55;;;;;;;17.10;13.27;;;15.20;82.70;;;;;;5032398;28;20330;-48
2021/03/26 10:11:25;;;;;;;15.77;11.98;;;15.20;83.00;;;;;;5031966;28;20230;-44
2021/03/26 10:13:56;;;;;;;13.60;11.55;;;15.20;82.80;;;;;;5031980;28;20240;-43
2021/03/26 10:16:36;;;;;;;15.93;13.07;;;15.30;82.60;;;;;;5032383;28;20531;-43
2021/03/26 10:19:09;;;;;;;15.57;11.93;;;15.30;82.90;;;;;;5032044;28;20212;-43
2021/03/26 10:21:45;;;;;;;16.17;12.07;;;15.20;81.60;;;;;;5031873;28;20808;-44
2021/03/26 10:24:20;;;;;;;15.43;12.45;;;15.20;81.90;;;;;;5031902;28;20251;-44
2021/03/26 10:26:51;;;;;;;17.58;12.57;;;15.30;81.50;;;;;;5031796;28;20685;-46
2021/03/26 10:29:28;;;;;;;19.80;14.80;;;15.30;81.30;;;;;;5031665;28;20663;-45
2021/03/26 10:32:07;;;;;;;19.50;13.25;;;15.40;81.30;;;;;;5031471;28;20234;-47
2021/03/26 10:34:37;;;;;;;17.02;11.68;;;15.60;80.90;;;;;;5031655;28;20216;-47
2021/03/26 10:37:23;;;;;;;17.63;12.50;;;15.70;80.10;;;;;;5031600;28;20200;-47
2021/03/26 10:39:54;;;;;;;14.18;11.20;;;15.80;79.90;;;;;;5031596;28;20260;-45
2021/03/26 10:42:34;;;;;;;14.63;12.52;;;15.90;80.30;;;;;;5031610;28;20236;-49
2021/03/26 10:45:19;;;;;;;14.50;12.02;;;15.90;79.10;;;;;;5031279;28;20551;-45
2021/03/26 10:47:51;;;;;;;15.55;12.05;;;16.00;79.00;;;;;;5031272;28;20689;-50
2021/03/26 10:50:29;;;;;;;15.25;11.77;;;16.00;78.60;;;;;;5031251;28;20204;-44
2021/03/26 10:53:04;;;;;;;23.20;11.77;;;16.10;78.40;;;;;;5031320;28;20621;-47
2021/03/26 10:55:42;;;;;;;12.85;11.20;;;16.00;78.50;;;;;;5031290;28;20603;-46
2021/03/26 10:58:23;;;;;;;15.23;11.80;;;16.10;78.40;;;;;;5031249;28;20208;-46
2021/03/26 11:01:01;;;;;;;15.40;11.40;;;16.20;78.00;;;;;;5031448;28;20325;-45
2021/03/26 11:03:32;;;;;;;17.33;10.60;;;16.40;77.60;;;;;;5031478;28;20219;-45
2021/03/26 11:06:01;;;;;;;12.90;10.98;;;16.50;77.10;;;;;;5030976;28;20547;-48
2021/03/26 11:08:47;;;;;;;15.20;11.63;;;16.60;76.60;;;;;;5031429;28;20288;-51
2021/03/26 11:11:32;;;;;;;14.20;11.27;;;16.80;76.10;;;;;;5031310;28;20567;-49
2021/03/26 11:14:18;;;;;;;12.23;9.55;;;16.80;75.40;;;;;;5031165;28;20263;-48
2021/03/26 11:16:50;;;;;;;21.85;18.58;;;16.90;75.20;;;;;;5031186;28;20295;-45
2021/03/26 11:19:25;;;;;;;12.75;11.25;;;17.00;74.40;;;;;;5035281;28;20243;-44
2021/03/26 11:21:55;;;;;;;17.65;10.98;;;17.10;73.70;;;;;;5035299;28;20258;-44
2021/03/26 11:24:24;;;;;;;12.73;11.18;;;17.20;73.10;;;;;;5035049;28;20308;-46
2021/03/26 11:27:01;;;;;;;12.13;10.40;;;17.30;72.70;;;;;;5034714;28;20647;-44
2021/03/26 11:29:32;;;;;;;15.27;10.68;;;17.40;71.70;;;;;;5035091;28;20247;-43
2021/03/26 11:32:07;;;;;;;17.25;12.40;;;17.30;71.80;;;;;;5034696;28;20743;-44
2021/03/26 11:34:41;;;;;;;14.63;11.60;;;17.40;71.80;;;;;;5035352;28;20212;-47
2021/03/26 11:37:17;;;;;;;17.58;10.20;;;17.40;71.30;;;;;;5034658;28;20588;-43
2021/03/26 11:40:15;;;;;;;14.55;9.43;;;17.40;71.00;;;;;;5034817;28;20233;-44
2021/03/26 11:42:48;;;;;;;10.45;8.50;;;17.50;67.80;;;;;;5018905;28;20701;-45
2021/03/26 11:45:32;;;;;;;12.30;8.43;;;17.50;68.20;;;;;;5034840;28;20212;-47
2021/03/26 11:48:08;;;;;;;10.55;8.32;;;17.50;66.10;;;;;;5034877;28;20623;-44
2021/03/26 11:50:38;;;;;;;12.45;7.03;;;17.40;67.40;;;;;;5034608;28;20216;-45
2021/03/26 11:53:35;;;;;;;13.43;9.25;;;17.40;64.90;;;;;;5034753;28;20295;-44
2021/03/26 11:56:48;;;;;;;9.70;7.68;;;17.30;64.10;;;;;;5031507;28;20215;-47
2021/03/26 11:59:58;;;;;;;9.30;7.68;;;17.30;64.40;;;;;;4987721;28;20247;-45
2021/03/26 12:03:05;;;;;;;8.27;6.60;;;17.40;63.80;;;;;;5034956;28;20212;-49
2021/03/26 12:05:59;;;;;;;10.18;7.70;;;17.60;63.00;;;;;;5013529;28;20266;-47
2021/03/26 12:08:31;;;;;;;12.82;7.82;;;17.60;61.60;;;;;;5034130;28;20271;-48
2021/03/26 12:11:02;;;;;;;12.88;9.48;;;17.70;61.80;;;;;;5034230;28;20232;-48
2021/03/26 12:13:35;;;;;;;12.23;8.15;;;17.70;61.70;;;;;;5034066;28;20208;-47
2021/03/26 12:16:09;;;;;;;10.77;7.82;;;17.70;61.70;;;;;;5033946;28;20227;-48
2021/03/26 12:18:45;;;;;;;8.45;6.93;;;17.70;61.70;;;;;;5034270;28;20216;-47
2021/03/26 12:21:24;;;;;;;9.45;7.07;;;17.80;61.10;;;;;;5033784;28;20228;-47
2021/03/26 12:23:58;;;;;;;10.40;7.50;;;17.90;60.70;;;;;;5033844;28;20248;-50
2021/03/26 12:26:30;;;;;;;13.48;8.85;;;17.90;60.30;;;;;;5033763;28;20291;-47
2021/03/26 12:29:20;;;;;;;11.85;7.93;;;18.00;59.90;;;;;;5033595;28;20240;-48
2021/03/26 12:32:05;;;;;;;8.88;5.47;;;18.10;59.30;;;;;;5033292;28;20240;-44
2021/03/26 12:34:53;;;;;;;9.73;6.32;;;18.10;58.50;;;;;;5033721;28;20204;-44
2021/03/26 12:37:27;;;;;;;5.18;4.15;;;18.20;57.80;;;;;;5033726;28;20299;-42
2021/03/26 12:40:16;;;;;;;6.50;4.40;;;18.20;56.80;;;;;;5033688;28;20323;-43
2021/03/26 12:42:47;;;;;;;9.35;5.50;;;18.30;55.70;;;;;;5033692;28;20244;-44
2021/03/26 12:45:22;;;;;;;6.80;4.60;;;18.30;56.10;;;;;;5033891;28;20215;-44
2021/03/26 12:47:51;;;;;;;11.35;5.95;;;18.40;55.60;;;;;;5034108;28;20245;-43
2021/03/26 12:50:23;;;;;;;6.47;5.50;;;18.40;55.40;;;;;;5033493;28;20209;-42
2021/03/26 12:52:58;;;;;;;6.53;5.05;;;18.40;53.60;;;;;;5033873;28;20373;-43
2021/03/26 12:55:37;;;;;;;11.88;5.07;;;18.20;53.90;;;;;;5033769;28;20615;-43
2021/03/26 12:58:39;;;;;;;8.27;5.15;;;18.10;54.00;;;;;;5033604;28;20304;-43
2021/03/26 13:01:11;;;;;;;9.30;6.05;;;18.10;54.70;;;;;;5033403;28;20268;-45
2021/03/26 13:03:41;;;;;;;8.80;6.97;;;18.10;54.90;;;;;;5033254;28;20618;-46
2021/03/26 13:06:14;;;;;;;13.40;6.63;;;18.10;55.00;;;;;;5032988;28;20663;-43
2021/03/26 13:09:19;;;;;;;9.77;6.38;;;18.00;55.40;;;;;;5033656;28;20540;-44
2021/03/26 13:11:50;;;;;;;7.53;5.88;;;18.10;55.40;;;;;;5033218;28;20265;-46
2021/03/26 13:14:23;;;;;;;7.03;5.78;;;18.20;55.50;;;;;;5033500;28;20303;-43
2021/03/26 13:16:52;;;;;;;9.20;7.22;;;18.40;55.40;;;;;;5033169;28;20303;-41
2021/03/26 13:19:28;;;;;;;10.48;7.50;;;18.50;54.90;;;;;;5033260;28;20212;-44
2021/03/26 13:22:22;;;;;;;7.72;5.88;;;18.40;55.00;;;;;;5033026;28;20784;-44
2021/03/26 13:25:01;;;;;;;7.38;5.82;;;18.40;54.90;;;;;;5002897;28;20216;-44
2021/03/26 13:27:40;;;;;;;12.45;6.78;;;18.40;55.10;;;;;;5032583;28;20231;-44
2021/03/26 13:30:22;;;;;;;9.07;6.60;;;18.40;55.10;;;;;;5032745;28;20721;-44
2021/03/26 13:33:16;;;;;;;9.48;7.05;;;18.40;55.20;;;;;;5032903;28;20244;-45
2021/03/26 13:35:56;;;;;;;8.65;6.53;;;18.40;55.20;;;;;;5032705;28;20721;-42